createdAt,value
2018-07-27T00:02:27.879Z,53.38
2018-07-27T00:04:56.131Z,54.23
2018-07-27T00:07:24.323Z,55.24
2018-07-27T00:09:52.720Z,55.28
2018-07-27T00:12:21.065Z,55.53
2018-07-27T00:14:49.308Z,55.08
2018-07-27T00:17:17.628Z,55.48
2018-07-27T00:19:45.865Z,55.60
2018-07-27T00:22:14.199Z,55.44
2018-07-27T00:24:42.399Z,52.65
2018-07-27T00:27:10.601Z,53.04
2018-07-27T00:29:38.838Z,53.43
2018-07-27T00:32:07.081Z,55.00
2018-07-27T00:34:35.345Z,55.36
2018-07-27T00:37:03.615Z,55.52
2018-07-27T00:39:31.885Z,56.16
2018-07-27T00:42:00.080Z,56.09
2018-07-27T00:44:28.376Z,55.59
2018-07-27T00:46:56.602Z,56.18
2018-07-27T00:49:24.803Z,57.62
2018-07-27T00:51:53.088Z,56.32
2018-07-27T00:54:21.297Z,57.01
2018-07-27T00:56:49.686Z,56.36
2018-07-27T00:59:17.882Z,58.64
2018-07-27T01:01:46.061Z,58.57
2018-07-27T01:04:14.326Z,56.87
2018-07-27T01:06:42.733Z,58.26
2018-07-27T01:09:11.751Z,57.06
2018-07-27T01:11:40.044Z,58.50
2018-07-27T01:14:08.377Z,58.44
2018-07-27T01:16:36.781Z,58.44
2018-07-27T01:19:05.068Z,58.76
2018-07-27T01:21:33.376Z,59.37
2018-07-27T01:24:01.566Z,58.99
2018-07-27T01:26:29.817Z,60.52
2018-07-27T01:28:58.019Z,62.20
2018-07-27T01:31:26.219Z,61.48
2018-07-27T01:33:54.424Z,59.43
2018-07-27T01:36:23.017Z,60.19
2018-07-27T01:38:51.359Z,61.51
2018-07-27T01:41:19.608Z,60.89
2018-07-27T01:43:47.830Z,62.17
2018-07-27T01:46:16.200Z,61.78
2018-07-27T01:48:44.482Z,61.96
2018-07-27T01:51:13.933Z,61.29
2018-07-27T01:53:42.675Z,61.22
2018-07-27T01:56:11.761Z,62.68
2018-07-27T01:58:40.673Z,61.83
2018-07-27T02:01:09.794Z,62.32
2018-07-27T02:03:39.319Z,61.09
2018-07-27T02:06:08.814Z,62.05
2018-07-27T02:08:37.656Z,62.48
2018-07-27T02:11:07.009Z,62.72
2018-07-27T02:13:36.737Z,63.16
2018-07-27T02:16:06.364Z,64.43
2018-07-27T02:18:35.315Z,63.62
2018-07-27T02:21:04.069Z,62.10
2018-07-27T02:23:32.941Z,65.12
2018-07-27T02:26:01.709Z,63.47
2018-07-27T02:28:31.178Z,63.15
2018-07-27T02:31:00.120Z,61.13
2018-07-27T02:33:29.155Z,60.70
2018-07-27T02:35:58.106Z,61.33
2018-07-27T02:38:26.889Z,62.16
2018-07-27T02:40:56.338Z,62.81
2018-07-27T02:43:25.701Z,64.72
2018-07-27T02:45:54.457Z,64.94
2018-07-27T02:48:23.529Z,64.00
2018-07-27T02:50:53.603Z,64.90
2018-07-27T02:53:22.418Z,63.85
2018-07-27T02:55:52.115Z,65.89
2018-07-27T02:58:21.263Z,63.81
2018-07-27T03:00:50.683Z,67.00
2018-07-27T03:03:21.300Z,63.21
2018-07-27T03:05:50.960Z,62.98
2018-07-27T03:08:20.091Z,64.27
2018-07-27T03:10:49.823Z,64.39
2018-07-27T03:13:19.862Z,63.67
2018-07-27T03:15:50.496Z,63.77
2018-07-27T03:18:19.721Z,63.06
2018-07-27T03:20:52.425Z,63.89
2018-07-27T03:23:21.750Z,63.96
2018-07-27T03:25:51.141Z,64.70
2018-07-27T03:28:20.990Z,65.45
2018-07-27T03:30:52.358Z,64.49
2018-07-27T03:33:26.251Z,66.42
2018-07-27T03:35:57.602Z,63.49
2018-07-27T03:38:26.469Z,64.61
2018-07-27T03:40:58.730Z,64.64
2018-07-27T03:43:27.671Z,63.31
2018-07-27T03:45:56.555Z,64.42
2018-07-27T03:48:26.032Z,63.35
2018-07-27T03:50:55.061Z,63.77
2018-07-27T03:53:24.711Z,63.65
2018-07-27T03:55:54.135Z,64.99
2018-07-27T03:58:24.416Z,64.30
2018-07-27T04:00:53.714Z,65.17
2018-07-27T04:03:23.226Z,64.68
2018-07-27T04:05:56.417Z,66.03
2018-07-27T04:08:25.709Z,65.50
2018-07-27T04:10:56.355Z,65.03
2018-07-27T04:13:26.830Z,65.05
2018-07-27T04:15:55.505Z,65.32
2018-07-27T04:18:24.319Z,66.44
2018-07-27T04:20:53.240Z,65.50
2018-07-27T04:23:22.028Z,66.41
2018-07-27T04:25:50.713Z,67.21
2018-07-27T04:28:20.252Z,67.20
2018-07-27T04:30:49.608Z,69.45
2018-07-27T04:33:19.278Z,66.48
2018-07-27T04:35:48.836Z,66.91
2018-07-27T04:38:17.956Z,67.19
2018-07-27T04:40:46.685Z,67.28
2018-07-27T04:43:16.447Z,68.12
2018-07-27T04:45:45.421Z,69.52
2018-07-27T04:48:14.736Z,68.00
2018-07-27T04:50:43.773Z,69.73
2018-07-27T04:53:12.863Z,70.32
2018-07-27T04:55:41.575Z,69.68
2018-07-27T04:58:11.444Z,69.18
2018-07-27T05:00:41.259Z,71.83
2018-07-27T05:03:10.328Z,69.84
2018-07-27T05:05:38.993Z,69.04
2018-07-27T05:08:08.654Z,68.02
2018-07-27T05:10:43.011Z,67.56
2018-07-27T05:13:11.764Z,69.88
2018-07-27T05:15:47.923Z,66.54
2018-07-27T05:18:17.659Z,66.42
2018-07-27T05:20:47.220Z,66.32
2018-07-27T05:23:16.037Z,65.07
2018-07-27T05:25:44.801Z,64.98
2018-07-27T05:28:13.557Z,65.00
2018-07-27T05:30:43.143Z,64.52
2018-07-27T05:33:13.110Z,63.74
2018-07-27T05:35:42.046Z,71.56
2018-07-27T05:38:10.931Z,66.68
2018-07-27T05:40:39.882Z,63.39
2018-07-27T05:43:08.819Z,62.47
2018-07-27T05:45:37.575Z,60.71
2018-07-27T05:48:06.630Z,60.56
2018-07-27T05:50:35.538Z,56.87
2018-07-27T05:53:04.450Z,57.12
2018-07-27T05:55:33.422Z,56.45
2018-07-27T05:58:02.331Z,55.27
2018-07-27T06:00:30.948Z,54.72
2018-07-27T06:03:00.089Z,52.58
2018-07-27T06:05:29.343Z,54.54
2018-07-27T06:07:58.294Z,50.40
2018-07-27T06:10:27.280Z,51.33
2018-07-27T06:12:56.093Z,51.67
2018-07-27T06:15:24.862Z,52.05
2018-07-27T06:17:53.644Z,53.58
2018-07-27T06:20:23.017Z,54.16
2018-07-27T06:22:52.022Z,54.69
2018-07-27T06:25:21.154Z,56.13
2018-07-27T06:27:50.643Z,59.50
2018-07-27T06:30:19.845Z,57.86
2018-07-27T06:32:48.867Z,52.61
2018-07-27T06:35:19.106Z,50.72
2018-07-27T06:37:47.882Z,50.00
2018-07-27T06:40:16.920Z,52.80
2018-07-27T06:42:45.789Z,53.06
2018-07-27T06:45:15.228Z,51.62
2018-07-27T06:47:44.030Z,51.48
2018-07-27T06:50:12.804Z,47.30
2018-07-27T06:52:41.582Z,47.31
2018-07-27T06:55:10.303Z,49.83
2018-07-27T06:57:39.039Z,49.68
2018-07-27T07:00:08.708Z,48.04
2018-07-27T07:02:37.817Z,48.15
2018-07-27T07:05:06.770Z,48.97
2018-07-27T07:07:35.862Z,48.50
2018-07-27T07:10:05.120Z,44.83
2018-07-27T07:12:35.770Z,45.27
2018-07-27T07:15:06.164Z,45.81
2018-07-27T07:17:35.418Z,46.19
2018-07-27T07:20:04.809Z,47.57
2018-07-27T07:22:33.526Z,46.31
2018-07-27T07:25:03.011Z,49.42
2018-07-27T07:27:32.390Z,49.67
2018-07-27T07:30:01.228Z,49.97
2018-07-27T07:32:29.966Z,48.31
2018-07-27T07:34:58.815Z,47.98
2018-07-27T07:37:27.639Z,46.69
2018-07-27T07:39:57.123Z,43.84
2018-07-27T07:42:26.015Z,45.51
2018-07-27T07:44:54.848Z,44.74
2018-07-27T07:47:23.767Z,43.31
2018-07-27T07:49:52.637Z,44.35
2018-07-27T07:52:21.549Z,42.99
2018-07-27T07:54:50.543Z,43.88
2018-07-27T07:57:19.043Z,43.58
2018-07-27T07:59:48.344Z,43.52
2018-07-27T08:02:16.934Z,41.99
2018-07-27T08:04:45.478Z,41.61
2018-07-27T08:07:14.327Z,43.53
2018-07-27T08:09:43.157Z,38.95
2018-07-27T08:12:11.948Z,40.06
2018-07-27T08:14:40.584Z,43.33
2018-07-27T08:17:09.395Z,42.05
2018-07-27T08:19:39.185Z,40.37
2018-07-27T08:22:07.968Z,39.35
2018-07-27T08:24:37.083Z,40.76
2018-07-27T08:27:07.097Z,37.58
2018-07-27T08:29:40.403Z,40.97
2018-07-27T08:32:09.444Z,38.25
2018-07-27T08:34:38.533Z,39.86
2018-07-27T08:37:07.777Z,37.55
2018-07-27T08:39:37.950Z,36.71
2018-07-27T08:42:06.789Z,39.06
2018-07-27T08:44:37.803Z,40.65
2018-07-27T08:47:06.620Z,38.01
2018-07-27T08:49:35.345Z,37.54
2018-07-27T08:52:04.804Z,36.65
2018-07-27T08:54:34.423Z,38.87
2018-07-27T08:57:03.676Z,34.86
2018-07-27T08:59:32.746Z,34.93
2018-07-27T09:02:01.901Z,35.82
2018-07-27T09:04:31.121Z,34.95
2018-07-27T09:06:59.697Z,37.12
2018-07-27T09:09:28.622Z,37.45
2018-07-27T09:11:57.380Z,36.61
2018-07-27T09:14:25.928Z,38.64
2018-07-27T09:16:54.845Z,37.56
2018-07-27T09:19:24.361Z,36.20
2018-07-27T09:21:54.377Z,33.43
2018-07-27T09:24:23.342Z,36.39
2018-07-27T09:26:52.022Z,36.25
2018-07-27T09:29:21.313Z,34.48
2018-07-27T09:31:50.228Z,36.30
2018-07-27T09:34:18.798Z,35.44
2018-07-27T09:36:47.645Z,34.63
2018-07-27T09:39:16.179Z,34.83
2018-07-27T09:41:44.986Z,33.90
2018-07-27T09:44:14.242Z,34.24
2018-07-27T09:46:43.315Z,34.88
2018-07-27T09:49:12.055Z,33.42
2018-07-27T09:51:40.687Z,30.71
2018-07-27T09:54:09.579Z,31.42
2018-07-27T09:56:38.250Z,32.19
2018-07-27T09:59:07.437Z,34.43
2018-07-27T10:01:36.122Z,33.10
2018-07-27T10:04:05.233Z,32.11
2018-07-27T10:06:34.457Z,32.68
2018-07-27T10:09:03.403Z,31.36
2018-07-27T10:11:32.253Z,32.47
2018-07-27T10:14:00.982Z,32.38
2018-07-27T10:16:29.544Z,33.94
2018-07-27T10:18:58.101Z,33.78
2018-07-27T10:21:26.882Z,30.38
2018-07-27T10:23:55.491Z,31.00
2018-07-27T10:26:24.282Z,31.23
2018-07-27T10:28:52.931Z,30.87
2018-07-27T10:31:22.456Z,31.04
2018-07-27T10:33:51.024Z,30.06
2018-07-27T10:36:19.723Z,33.48
2018-07-27T10:38:48.743Z,30.40
2018-07-27T10:41:17.454Z,31.46
2018-07-27T10:43:46.205Z,30.73
2018-07-27T10:46:15.174Z,30.47
2018-07-27T10:48:43.797Z,30.66
2018-07-27T10:51:12.461Z,30.84
2018-07-27T10:53:41.342Z,29.15
2018-07-27T10:56:10.354Z,31.46
2018-07-27T10:58:39.470Z,31.82
2018-07-27T11:01:08.581Z,31.94
2018-07-27T11:03:37.482Z,30.66
2018-07-27T11:06:06.197Z,30.88
2018-07-27T11:08:35.153Z,31.17
2018-07-27T11:11:03.924Z,29.90
2018-07-27T11:13:32.587Z,30.54
2018-07-27T11:16:01.197Z,31.07
2018-07-27T11:18:30.174Z,31.70
2018-07-27T11:20:58.823Z,29.94
2018-07-27T11:23:27.562Z,30.79
2018-07-27T11:25:56.675Z,29.89
2018-07-27T11:28:25.440Z,28.16
2018-07-27T11:30:53.964Z,27.77
2018-07-27T11:33:22.695Z,28.75
2018-07-27T11:35:51.838Z,28.39
2018-07-27T11:38:20.503Z,30.58
2018-07-27T11:40:49.352Z,29.16
2018-07-27T11:43:19.246Z,29.19
2018-07-27T11:45:48.303Z,29.29
2018-07-27T11:48:17.123Z,30.84
2018-07-27T11:50:45.733Z,28.58
2018-07-27T11:53:14.565Z,31.44
2018-07-27T11:55:43.600Z,29.47
2018-07-27T11:58:12.241Z,29.65
2018-07-27T12:00:40.821Z,29.30
2018-07-27T12:03:09.489Z,29.56
2018-07-27T12:05:38.315Z,30.06
2018-07-27T12:08:07.204Z,29.75
2018-07-27T12:10:36.215Z,30.33
2018-07-27T12:13:05.521Z,28.17
2018-07-27T12:15:34.150Z,29.69
2018-07-27T12:18:03.384Z,27.30
2018-07-27T12:20:32.886Z,25.83
2018-07-27T12:23:02.318Z,23.68
2018-07-27T12:25:31.008Z,21.45
2018-07-27T12:27:59.842Z,19.88
2018-07-27T12:30:28.934Z,18.50
2018-07-27T12:32:58.017Z,17.30
2018-07-27T12:35:27.687Z,16.93
2018-07-27T12:37:57.240Z,16.68
2018-07-27T12:40:26.138Z,17.19
2018-07-27T12:42:55.054Z,16.29
2018-07-27T12:45:23.815Z,16.17
2018-07-27T12:47:52.583Z,16.01
2018-07-27T12:50:21.478Z,15.78
2018-07-27T12:52:50.275Z,15.49
2018-07-27T12:55:19.031Z,15.07
2018-07-27T12:57:47.905Z,14.92
2018-07-27T13:00:16.694Z,14.45
2018-07-27T13:02:46.011Z,14.21
2018-07-27T13:05:14.779Z,13.50
2018-07-27T13:07:43.681Z,14.18
2018-07-27T13:10:12.502Z,13.24
2018-07-27T13:12:41.138Z,12.25
2018-07-27T13:15:09.965Z,13.38
2018-07-27T13:17:39.144Z,11.83
2018-07-27T13:20:08.141Z,12.31
2018-07-27T13:22:36.894Z,12.10
2018-07-27T13:25:05.854Z,12.28
2018-07-27T13:27:35.099Z,11.85
2018-07-27T13:30:04.034Z,12.37
2018-07-27T13:32:32.841Z,11.78
2018-07-27T13:35:01.705Z,13.08
2018-07-27T13:40:01.887Z,13.83
2018-07-27T13:42:32.719Z,13.16
2018-07-27T13:45:01.606Z,13.00
2018-07-27T13:47:31.039Z,12.86
2018-07-27T13:49:59.642Z,13.63
2018-07-27T13:52:28.370Z,13.10
2018-07-27T13:54:57.326Z,13.75
2018-07-27T13:57:26.049Z,13.75
2018-07-27T13:59:54.976Z,13.26
2018-07-27T14:02:23.476Z,12.60
2018-07-27T14:04:52.338Z,13.26
2018-07-27T14:07:20.997Z,10.88
2018-07-27T14:09:49.773Z,12.84
2018-07-27T14:12:19.300Z,13.78
2018-07-27T14:14:48.768Z,14.34
2018-07-27T14:17:17.477Z,14.06
2018-07-27T14:19:46.240Z,14.26
2018-07-27T14:22:15.005Z,13.93
2018-07-27T14:24:43.643Z,15.85
2018-07-27T14:27:12.528Z,15.15
2018-07-27T14:29:41.347Z,17.04
2018-07-27T14:32:10.750Z,17.43
2018-07-27T14:34:39.388Z,16.63
2018-07-27T14:37:09.056Z,16.40
2018-07-27T14:39:38.055Z,18.15
2018-07-27T14:42:06.762Z,16.66
2018-07-27T14:44:35.502Z,15.91
2018-07-27T14:47:03.406Z,14.33
2018-07-27T14:49:32.112Z,14.28
2018-07-27T14:52:00.464Z,13.14
2018-07-27T14:54:29.807Z,11.75
2018-07-27T14:56:59.146Z,11.11
2018-07-27T14:59:28.188Z,10.50
2018-07-27T15:01:56.887Z,10.03
2018-07-27T15:04:25.795Z,11.02
2018-07-27T15:06:54.814Z,11.69
2018-07-27T15:09:23.618Z,10.81
2018-07-27T15:11:52.325Z,11.43
2018-07-27T15:14:21.528Z,10.85
2018-07-27T15:16:50.039Z,11.91
2018-07-27T15:19:18.801Z,12.63
2018-07-27T15:21:47.652Z,12.60
2018-07-27T15:24:16.881Z,12.15
2018-07-27T15:26:45.846Z,11.80
2018-07-27T15:29:14.577Z,11.70
2018-07-27T15:31:43.401Z,12.31
2018-07-27T15:34:12.252Z,11.28
2018-07-27T15:36:40.962Z,11.81
2018-07-27T15:39:10.237Z,11.17
2018-07-27T15:41:38.949Z,11.33
2018-07-27T15:44:07.951Z,11.29
2018-07-27T15:46:36.703Z,11.14
2018-07-27T15:49:06.149Z,11.93
2018-07-27T15:51:35.085Z,14.46
2018-07-27T15:54:03.840Z,14.01
2018-07-27T15:56:32.536Z,13.77
2018-07-27T15:59:01.356Z,13.85
2018-07-27T16:01:30.070Z,12.50
2018-07-27T16:03:58.840Z,12.47
2018-07-27T16:06:27.595Z,11.89
2018-07-27T16:08:56.265Z,11.28
2018-07-27T16:11:24.904Z,11.51
2018-07-27T16:13:54.757Z,11.04
2018-07-27T16:16:23.323Z,11.08
2018-07-27T16:18:52.208Z,11.76
2018-07-27T16:21:21.217Z,10.92
2018-07-27T16:23:50.002Z,11.14
2018-07-27T16:26:18.842Z,11.55
2018-07-27T16:28:47.601Z,12.13
2018-07-27T16:31:16.384Z,11.17
2018-07-27T16:33:44.945Z,11.72
2018-07-27T16:36:13.515Z,11.07
2018-07-27T16:38:43.006Z,11.53
2018-07-27T16:41:11.761Z,10.59
2018-07-27T16:43:40.299Z,11.14
2018-07-27T16:46:08.940Z,12.96
2018-07-27T16:48:38.798Z,11.06
2018-07-27T16:51:07.373Z,12.33
2018-07-27T16:53:35.906Z,11.36
2018-07-27T16:56:04.644Z,10.87
2018-07-27T16:58:33.547Z,12.38
2018-07-27T17:01:02.279Z,13.39
2018-07-27T17:03:32.664Z,12.88
2018-07-27T17:06:01.789Z,13.82
2018-07-27T17:08:31.272Z,12.74
2018-07-27T17:11:00.092Z,12.49
2018-07-27T17:13:28.870Z,14.88
2018-07-27T17:15:57.697Z,13.84
2018-07-27T17:18:26.543Z,14.36
2018-07-27T17:20:55.768Z,13.47
2018-07-27T17:23:25.200Z,14.36
2018-07-27T17:25:53.884Z,14.94
2018-07-27T17:28:23.487Z,14.70
2018-07-27T17:30:52.750Z,15.44
2018-07-27T17:33:21.561Z,15.86
2018-07-27T17:35:50.976Z,15.27
2018-07-27T17:38:19.732Z,16.25
2018-07-27T17:40:48.806Z,16.31
2018-07-27T17:43:17.664Z,16.59
2018-07-27T17:45:46.712Z,16.97
2018-07-27T17:48:16.372Z,16.28
2018-07-27T17:50:45.608Z,17.21
2018-07-27T17:53:14.792Z,18.12
2018-07-27T17:55:44.567Z,19.06
2018-07-27T17:58:13.564Z,18.07
2018-07-27T18:00:42.088Z,19.93
2018-07-27T18:03:10.704Z,20.88
2018-07-27T18:05:39.522Z,22.31
2018-07-27T18:08:08.207Z,23.63
2018-07-27T18:10:37.787Z,25.48
2018-07-27T18:13:06.542Z,26.82
2018-07-27T18:15:35.406Z,28.51
2018-07-27T18:18:04.272Z,28.67
2018-07-27T18:20:33.018Z,29.86
2018-07-27T18:23:02.120Z,30.77
2018-07-27T18:25:30.911Z,31.62
2018-07-27T18:27:59.700Z,32.67
2018-07-27T18:30:29.134Z,33.33
2018-07-27T18:32:58.364Z,33.16
2018-07-27T18:35:27.040Z,33.72
2018-07-27T18:37:55.662Z,34.32
2018-07-27T18:40:24.313Z,34.64
2018-07-27T18:42:53.157Z,35.16
2018-07-27T18:45:22.703Z,35.07
2018-07-27T18:47:51.482Z,34.80
2018-07-27T18:50:20.585Z,36.09
2018-07-27T18:52:49.355Z,35.44
2018-07-27T18:55:18.207Z,36.74
2018-07-27T18:57:46.870Z,36.84
2018-07-27T19:00:15.945Z,36.78
2018-07-27T19:02:44.786Z,36.92
2018-07-27T19:05:13.381Z,37.29
2018-07-27T19:07:42.040Z,37.78
2018-07-27T19:10:12.400Z,37.71
2018-07-27T19:12:41.244Z,38.10
2018-07-27T19:15:10.443Z,38.47
2018-07-27T19:17:39.383Z,39.41
2018-07-27T19:20:08.075Z,39.38
2018-07-27T19:22:36.676Z,41.80
2018-07-27T19:25:05.445Z,42.45
2018-07-27T19:27:34.507Z,40.84
2018-07-27T19:30:03.527Z,40.71
2018-07-27T19:32:32.338Z,41.46
2018-07-27T19:35:01.490Z,41.23
2018-07-27T19:37:30.747Z,41.80
2018-07-27T19:39:59.448Z,41.79
2018-07-27T19:42:28.709Z,43.07
2018-07-27T19:44:57.489Z,42.93
2018-07-27T19:47:26.145Z,43.00
2018-07-27T19:49:54.782Z,43.37
2018-07-27T19:52:23.551Z,43.77
2018-07-27T19:54:52.249Z,44.28
2018-07-27T19:57:20.995Z,44.67
2018-07-27T19:59:49.784Z,45.43
2018-07-27T20:02:18.572Z,45.71
2018-07-27T20:04:47.557Z,45.96
2018-07-27T20:07:16.227Z,46.41
2018-07-27T20:09:45.053Z,46.85
2018-07-27T20:12:13.841Z,46.70
2018-07-27T20:14:42.396Z,46.60
2018-07-27T20:17:11.191Z,47.84
2018-07-27T20:19:39.825Z,50.58
2018-07-27T20:22:09.292Z,49.06
2018-07-27T20:24:38.251Z,48.73
2018-07-27T20:27:07.254Z,47.91
2018-07-27T20:29:36.072Z,47.36
2018-07-27T20:32:04.838Z,46.49
2018-07-27T20:34:33.500Z,46.69
2018-07-27T20:37:02.268Z,45.82
2018-07-27T20:39:31.118Z,46.00
2018-07-27T20:41:59.697Z,46.11
2018-07-27T20:44:28.576Z,47.17
2018-07-27T20:46:57.277Z,46.59
2018-07-27T20:49:26.079Z,46.36
2018-07-27T20:51:54.634Z,48.01
2018-07-27T20:54:23.247Z,45.47
2018-07-27T20:56:52.097Z,46.29
2018-07-27T20:59:21.562Z,49.23
2018-07-27T21:01:50.536Z,47.58
2018-07-27T21:04:19.364Z,47.33
2018-07-27T21:06:48.205Z,47.03
2018-07-27T21:09:17.095Z,47.74
2018-07-27T21:11:49.123Z,49.27
2018-07-27T21:14:17.675Z,48.36
2018-07-27T21:16:46.550Z,49.85
2018-07-27T21:19:15.477Z,49.04
2018-07-27T21:21:44.027Z,48.60
2018-07-27T21:24:13.362Z,49.06
2018-07-27T21:26:41.605Z,50.15
2018-07-27T21:29:10.435Z,50.97
2018-07-27T21:31:39.183Z,49.72
2018-07-27T21:34:08.027Z,50.39
2018-07-27T21:36:36.760Z,52.12
2018-07-27T21:39:08.781Z,51.18
2018-07-27T21:41:38.022Z,51.15
2018-07-27T21:44:06.823Z,52.14
2018-07-27T21:46:36.011Z,53.20
2018-07-27T21:49:04.715Z,51.33
2018-07-27T21:51:33.623Z,51.84
2018-07-27T21:54:02.303Z,53.54
2018-07-27T21:56:30.897Z,51.50
2018-07-27T21:59:00.159Z,54.17
2018-07-27T22:01:29.079Z,54.60
2018-07-27T22:03:58.167Z,53.21
2018-07-27T22:06:31.942Z,54.90
2018-07-27T22:09:00.446Z,53.94
2018-07-27T22:11:32.843Z,50.56
2018-07-27T22:14:15.408Z,53.36
2018-07-27T22:16:57.961Z,53.48
2018-07-27T22:20:11.479Z,54.51
2018-07-27T22:22:41.000Z,51.44
2018-07-27T22:25:10.558Z,52.04
2018-07-27T22:27:39.078Z,53.28
2018-07-27T22:30:20.128Z,53.35
2018-07-27T22:32:52.578Z,53.11
2018-07-27T22:35:22.158Z,52.11
2018-07-27T22:37:51.954Z,53.44
2018-07-27T22:40:21.238Z,52.25
2018-07-27T22:42:49.764Z,51.29
2018-07-27T22:45:18.577Z,52.59
2018-07-27T22:47:48.084Z,52.53
2018-07-27T22:50:17.402Z,52.95
2018-07-27T22:52:47.240Z,52.83
2018-07-27T22:55:16.003Z,50.32
2018-07-27T22:57:44.699Z,51.54
2018-07-27T23:00:15.451Z,53.28
2018-07-27T23:02:45.254Z,54.63
2018-07-27T23:05:14.308Z,51.77
2018-07-27T23:07:43.265Z,52.98
2018-07-27T23:10:11.836Z,52.06
2018-07-27T23:12:40.724Z,53.38
2018-07-27T23:15:11.072Z,54.83
2018-07-27T23:17:39.803Z,51.33
2018-07-27T23:20:12.228Z,52.91
2018-07-27T23:22:41.219Z,52.89
2018-07-27T23:25:09.794Z,52.96
2018-07-27T23:27:38.782Z,53.08
2018-07-27T23:30:09.592Z,54.32
2018-07-27T23:32:38.193Z,53.58
2018-07-27T23:35:07.314Z,53.09
2018-07-27T23:37:36.746Z,54.65
2018-07-27T23:40:05.899Z,53.98
2018-07-27T23:42:34.753Z,54.88
2018-07-27T23:45:03.482Z,54.32
2018-07-27T23:47:32.162Z,54.39
2018-07-27T23:50:01.144Z,54.02
2018-07-27T23:52:30.105Z,53.81
2018-07-27T23:54:58.952Z,54.49
2018-07-27T23:57:27.650Z,55.39
2018-07-27T23:59:56.242Z,57.95
